Time;durP1;ratioP1;P1;durP2;ratioP2;P2;SDS_P1;SDS_P2;PMS_P1;PMS_P2;Temp;Humidity;BMP_temperature;BMP_pressure;BME280_temperature;BME280_humidity;BME280_pressure;Samples;Min_cycle;Max_cycle;Signal;HPM_P1;HPM_P2
2023/01/11 00:02:12;;;;;;;8.15;3.42;;;0.60;99.90;;;;;;5053697;28;20449;-61
2023/01/11 00:04:39;;;;;;;8.82;3.25;;;0.70;99.90;;;;;;5050905;28;20052;-61
2023/01/11 00:07:05;;;;;;;6.35;3.47;;;0.70;99.90;;;;;;5063593;28;20095;-61
2023/01/11 00:09:32;;;;;;;5.93;3.05;;;0.80;99.90;;;;;;5068147;28;20037;-61
2023/01/11 00:11:59;;;;;;;5.72;2.45;;;0.80;99.90;;;;;;5057830;28;20038;-61
2023/01/11 00:14:26;;;;;;;6.32;2.80;;;0.80;99.90;;;;;;5046952;28;20513;-61
2023/01/11 00:16:52;;;;;;;7.20;3.55;;;0.90;99.90;;;;;;5051155;28;20045;-61
2023/01/11 00:19:19;;;;;;;10.68;3.72;;;1.00;99.90;;;;;;5057362;28;20045;-61
2023/01/11 00:21:48;;;;;;;7.80;3.63;;;1.00;99.90;;;;;;5065650;28;20101;-61
2023/01/11 00:24:15;;;;;;;6.03;3.03;;;1.10;99.90;;;;;;5058315;28;20383;-61
2023/01/11 00:26:41;;;;;;;4.30;2.42;;;1.10;99.90;;;;;;5063595;28;20053;-60
2023/01/11 00:29:08;;;;;;;6.85;3.38;;;1.10;99.90;;;;;;5059233;28;20095;-60
2023/01/11 00:31:34;;;;;;;8.18;3.00;;;1.20;99.90;;;;;;5053687;28;20033;-60
2023/01/11 00:34:01;;;;;;;5.53;2.42;;;1.20;99.90;;;;;;5052935;28;20485;-61
2023/01/11 00:36:28;;;;;;;6.85;2.67;;;1.20;99.90;;;;;;5062348;28;20029;-61
2023/01/11 00:38:55;;;;;;;3.65;2.15;;;1.20;99.90;;;;;;5069124;28;20040;-60
2023/01/11 00:49:40;;;;;;;8.88;2.97;;;1.30;99.90;;;;;;5063144;28;20041;-60
2023/01/11 00:52:08;;;;;;;7.18;2.88;;;1.20;99.90;;;;;;5061306;28;20082;-61
2023/01/11 00:54:36;;;;;;;5.30;2.22;;;1.20;99.90;;;;;;5063914;28;20123;-61
2023/01/11 00:57:06;;;;;;;4.20;2.22;;;1.20;99.90;;;;;;5063756;28;20044;-61
2023/01/11 00:59:33;;;;;;;7.10;2.65;;;1.30;99.90;;;;;;5064421;28;20032;-60
2023/01/11 01:02:00;;;;;;;6.20;2.33;;;1.30;99.90;;;;;;5060234;28;20094;-61
2023/01/11 01:04:27;;;;;;;5.93;2.30;;;1.30;99.90;;;;;;5065423;28;20059;-60
2023/01/11 01:06:54;;;;;;;2.60;1.50;;;1.30;99.90;;;;;;5065437;28;20041;-61
2023/01/11 01:09:21;;;;;;;6.28;2.25;;;1.30;99.90;;;;;;5063875;28;20037;-61
2023/01/11 01:11:48;;;;;;;4.00;1.90;;;1.30;99.90;;;;;;5064673;28;20072;-61
2023/01/11 01:14:30;;;;;;;4.38;2.17;;;1.30;99.90;;;;;;5063777;28;20142;-61
2023/01/11 01:17:00;;;;;;;5.25;2.15;;;1.30;99.90;;;;;;5057291;28;20107;-61
2023/01/11 01:19:28;;;;;;;5.20;1.88;;;1.30;99.90;;;;;;5041780;28;20405;-61
2023/01/11 01:21:56;;;;;;;6.30;1.92;;;1.40;99.90;;;;;;5057660;28;20557;-61
2023/01/11 01:24:27;;;;;;;4.45;1.75;;;1.40;99.90;;;;;;5055073;28;20064;-61
2023/01/11 01:26:55;;;;;;;4.38;1.90;;;1.40;99.90;;;;;;5059943;28;20051;-61
2023/01/11 01:29:21;;;;;;;3.72;1.98;;;1.40;99.90;;;;;;5067585;28;20513;-61
2023/01/11 01:31:48;;;;;;;4.50;2.28;;;1.40;99.90;;;;;;5061051;28;20072;-60
2023/01/11 01:34:15;;;;;;;5.45;2.60;;;1.40;99.90;;;;;;5061178;28;20086;-60
2023/01/11 01:36:42;;;;;;;4.25;2.35;;;1.40;99.90;;;;;;5053817;28;20064;-60
2023/01/11 01:39:10;;;;;;;5.10;2.38;;;1.40;99.90;;;;;;5052144;28;20107;-61
2023/01/11 01:41:37;;;;;;;3.25;2.08;;;1.40;99.90;;;;;;5051595;28;20091;-61
2023/01/11 01:44:25;;;;;;;10.48;2.67;;;1.30;99.90;;;;;;5051998;28;20057;-61
2023/01/11 01:46:51;;;;;;;5.50;2.17;;;1.30;99.90;;;;;;5060595;28;20109;-61
2023/01/11 01:49:18;;;;;;;3.85;2.38;;;1.20;99.90;;;;;;5073120;28;20086;-60
2023/01/11 01:51:53;;;;;;;8.13;2.60;;;1.20;99.90;;;;;;5070004;28;20040;-61
2023/01/11 01:54:24;;;;;;;6.18;2.25;;;1.10;99.90;;;;;;5049301;28;20048;-61
2023/01/11 01:56:55;;;;;;;2.92;2.08;;;1.10;99.90;;;;;;5052776;28;20036;-61
2023/01/11 01:59:25;;;;;;;6.38;3.53;;;1.10;99.90;;;;;;5052443;28;20045;-61
2023/01/11 02:01:52;;;;;;;5.63;2.50;;;1.10;99.90;;;;;;5052462;28;20594;-60
2023/01/11 02:04:23;;;;;;;4.85;2.38;;;1.20;99.90;;;;;;5031755;28;20147;-61
2023/01/11 02:06:55;;;;;;;6.28;2.38;;;1.20;99.90;;;;;;5048753;28;20068;-61
2023/01/11 02:09:31;;;;;;;6.47;1.90;;;1.20;99.90;;;;;;5043492;28;20509;-61
2023/01/11 02:11:58;;;;;;;3.88;2.15;;;1.30;99.90;;;;;;5051695;28;20075;-60
2023/01/11 02:14:28;;;;;;;5.30;2.08;;;1.40;99.90;;;;;;5051417;28;20075;-61
2023/01/11 02:16:54;;;;;;;4.22;2.22;;;1.40;99.90;;;;;;5068674;28;20123;-61
2023/01/11 02:19:39;;;;;;;3.95;1.92;;;1.40;99.90;;;;;;5072643;28;20509;-61
2023/01/11 02:22:21;;;;;;;3.40;1.92;;;1.40;99.90;;;;;;5055733;28;20041;-61
2023/01/11 02:25:26;;;;;;;3.83;2.03;;;1.40;99.90;;;;;;5067662;28;20044;-61
2023/01/11 02:28:21;;;;;;;5.68;2.53;;;1.40;99.90;;;;;;5072371;28;20044;-61
2023/01/11 02:30:54;;;;;;;7.97;2.65;;;1.40;99.90;;;;;;5047703;28;20497;-61
2023/01/11 02:33:26;;;;;;;4.55;2.20;;;1.50;99.90;;;;;;5066290;28;20436;-61
2023/01/11 02:36:16;;;;;;;8.00;3.05;;;1.40;99.90;;;;;;5047939;28;20041;-60
2023/01/11 02:39:01;;;;;;;4.47;2.03;;;1.50;99.90;;;;;;5050892;28;20044;-61
2023/01/11 02:45:02;;;;;;;4.88;2.50;;;1.50;99.90;;;;;;5043945;28;20045;-61
2023/01/11 02:47:35;;;;;;;4.55;2.10;;;1.60;99.90;;;;;;5049446;28;20103;-60
2023/01/11 02:50:10;;;;;;;7.50;2.58;;;1.60;99.90;;;;;;5052138;28;20409;-60
2023/01/11 02:52:48;;;;;;;5.88;2.80;;;1.60;99.90;;;;;;5056862;28;20082;-61
2023/01/11 02:55:20;;;;;;;4.30;2.53;;;1.60;99.90;;;;;;5056882;28;20041;-61
2023/01/11 02:57:48;;;;;;;5.43;2.20;;;1.60;99.90;;;;;;5072231;28;20102;-60
2023/01/11 03:00:16;;;;;;;8.77;2.78;;;1.60;99.90;;;;;;5053460;28;20098;-61
2023/01/11 03:02:43;;;;;;;5.05;2.40;;;1.60;99.90;;;;;;5071505;28;20044;-60
2023/01/11 03:05:14;;;;;;;6.85;2.85;;;1.60;99.90;;;;;;5057343;28;20403;-60
2023/01/11 03:08:00;;;;;;;6.22;2.45;;;1.60;99.90;;;;;;5066043;28;20052;-61
2023/01/11 03:10:56;;;;;;;7.22;2.53;;;1.60;99.90;;;;;;5065206;28;20044;-61
2023/01/11 03:13:39;;;;;;;7.93;2.83;;;1.60;99.90;;;;;;5040760;28;20060;-61
2023/01/11 03:16:45;;;;;;;6.32;2.20;;;1.60;99.90;;;;;;5043973;28;20180;-60
2023/01/11 03:19:29;;;;;;;5.88;2.30;;;1.60;99.90;;;;;;4968422;28;20122;-61
2023/01/11 03:22:39;;;;;;;3.60;2.15;;;1.60;99.90;;;;;;4967868;28;20078;-61
2023/01/11 03:25:10;;;;;;;;;;;1.60;99.90;;;;;;5042880;28;20064;-60
2023/01/11 03:28:03;;;;;;;4.85;3.05;;;1.60;99.90;;;;;;5049630;28;20262;-60
2023/01/11 03:30:36;;;;;;;6.47;2.33;;;1.60;99.90;;;;;;5050828;28;20049;-61
2023/01/11 03:33:11;;;;;;;6.25;2.53;;;1.60;99.90;;;;;;5049983;28;20044;-60
2023/01/11 03:36:10;;;;;;;4.43;2.10;;;1.60;99.90;;;;;;5044205;28;20460;-61
2023/01/11 03:38:59;;;;;;;5.82;2.38;;;1.60;99.90;;;;;;5045059;28;20090;-61
2023/01/11 03:41:31;;;;;;;4.95;2.35;;;1.60;99.90;;;;;;5051120;28;20033;-61
2023/01/11 03:44:00;;;;;;;5.15;2.38;;;1.70;99.90;;;;;;5047432;28;20095;-61
2023/01/11 03:46:30;;;;;;;4.72;2.50;;;1.70;99.90;;;;;;5055147;28;20036;-61
2023/01/11 03:49:17;;;;;;;7.35;3.83;;;1.70;99.90;;;;;;5071401;28;20037;-61
2023/01/11 03:51:46;;;;;;;4.53;2.28;;;1.70;99.90;;;;;;5054358;28;20037;-61
2023/01/11 03:54:15;;;;;;;5.40;2.88;;;1.70;99.90;;;;;;5070853;28;20413;-61
2023/01/11 03:57:06;;;;;;;5.20;2.50;;;1.70;99.90;;;;;;5070346;28;20114;-60
2023/01/11 03:59:33;;;;;;;6.07;2.38;;;1.70;99.90;;;;;;5065198;28;20073;-61
2023/01/11 04:02:00;;;;;;;;;;;1.70;99.90;;;;;;5051144;28;20505;-61
2023/01/11 04:04:27;;;;;;;6.22;3.08;;;1.70;99.90;;;;;;5049855;28;20019;-61
2023/01/11 04:06:54;;;;;;;5.35;2.13;;;1.70;99.90;;;;;;5038036;28;20120;-61
2023/01/11 04:09:20;;;;;;;6.38;2.35;;;1.70;99.90;;;;;;5043614;28;20037;-61
2023/01/11 04:11:47;;;;;;;5.50;2.63;;;1.70;99.90;;;;;;5045230;28;20493;-60
2023/01/11 04:14:14;;;;;;;6.80;2.30;;;1.70;99.90;;;;;;5046834;28;20050;-61
2023/01/11 04:16:44;;;;;;;4.05;2.10;;;1.70;99.90;;;;;;5045915;28;20040;-61
2023/01/11 04:19:11;;;;;;;3.22;1.73;;;1.70;99.90;;;;;;5051005;28;20114;-61
2023/01/11 04:21:37;;;;;;;5.22;2.28;;;1.70;99.90;;;;;;5039801;28;20046;-61
2023/01/11 04:24:04;;;;;;;3.53;2.22;;;1.70;99.90;;;;;;5039549;28;20041;-61
2023/01/11 04:26:32;;;;;;;3.90;2.47;;;1.70;99.90;;;;;;5046016;28;20045;-61
2023/01/11 04:28:58;;;;;;;;;;;1.60;99.90;;;;;;5047694;28;20036;-61
2023/01/11 04:31:25;;;;;;;3.78;1.90;;;1.60;99.90;;;;;;5049315;28;19925;-61
2023/01/11 04:33:51;;;;;;;5.28;1.95;;;1.50;99.90;;;;;;5050882;28;20049;-61
2023/01/11 04:36:18;;;;;;;3.90;1.70;;;1.50;99.90;;;;;;5027493;28;20555;-61
2023/01/11 04:38:45;;;;;;;3.78;2.13;;;1.50;99.90;;;;;;5057339;28;20041;-61
2023/01/11 04:43:57;;;;;;;7.63;2.55;;;1.50;99.90;;;;;;5045278;28;20049;-61
2023/01/11 04:46:24;;;;;;;2.50;1.58;;;1.50;99.90;;;;;;5049245;28;20083;-60
2023/01/11 04:48:51;;;;;;;3.92;2.03;;;1.50;99.90;;;;;;5054397;28;20044;-61
2023/01/11 04:51:18;;;;;;;5.57;2.15;;;1.50;99.90;;;;;;5051465;28;20102;-60
2023/01/11 04:53:47;;;;;;;4.45;1.40;;;1.60;99.90;;;;;;5048852;28;20033;-60
2023/01/11 04:56:15;;;;;;;4.30;2.05;;;1.60;99.90;;;;;;5053078;28;20045;-61
2023/01/11 04:58:41;;;;;;;5.72;2.35;;;1.60;99.90;;;;;;5054421;28;20401;-60
2023/01/11 05:01:15;;;;;;;5.85;2.35;;;1.60;99.90;;;;;;5045993;28;20033;-61
2023/01/11 05:03:42;;;;;;;8.07;2.70;;;1.60;99.90;;;;;;5059986;28;20067;-60
2023/01/11 05:06:10;;;;;;;4.70;1.85;;;1.70;99.90;;;;;;5073784;28;20047;-61
2023/01/11 05:08:37;;;;;;;4.00;1.95;;;1.70;99.90;;;;;;5074261;28;20067;-61
2023/01/11 05:11:06;;;;;;;5.72;1.60;;;1.70;99.90;;;;;;5061685;28;20037;-61
2023/01/11 05:13:42;;;;;;;6.70;2.30;;;1.70;99.90;;;;;;5060133;28;20095;-61
2023/01/11 05:16:22;;;;;;;5.18;2.22;;;1.70;99.90;;;;;;5046650;28;20037;-61
2023/01/11 05:18:54;;;;;;;7.63;3.08;;;1.70;99.90;;;;;;5052230;28;20990;-61
2023/01/11 05:21:24;;;;;;;7.13;2.13;;;1.60;99.90;;;;;;5044799;28;20096;-61
2023/01/11 05:23:52;;;;;;;4.45;1.98;;;1.60;99.90;;;;;;5052520;28;20040;-61
2023/01/11 05:26:24;;;;;;;6.78;1.90;;;1.70;99.90;;;;;;5045494;28;20049;-61
2023/01/11 05:28:51;;;;;;;5.10;2.03;;;1.70;99.90;;;;;;5048928;28;20044;-61
2023/01/11 05:31:18;;;;;;;;;;;1.70;99.90;;;;;;5052795;28;20728;-61
2023/01/11 05:33:44;;;;;;;4.47;1.73;;;1.70;99.90;;;;;;5048968;28;20388;-61
2023/01/11 05:36:13;;;;;;;3.90;2.15;;;1.70;99.90;;;;;;5048416;28;20041;-61
2023/01/11 05:38:40;;;;;;;5.07;2.58;;;1.70;99.90;;;;;;5024240;28;20044;-61
2023/01/11 05:41:09;;;;;;;4.72;2.42;;;1.70;99.90;;;;;;5049934;28;20052;-61
2023/01/11 05:46:22;;;;;;;6.45;2.00;;;1.70;99.90;;;;;;5044862;28;20498;-61
2023/01/11 05:48:49;;;;;;;8.10;2.17;;;1.70;99.90;;;;;;5040133;28;20045;-61
2023/01/11 05:51:16;;;;;;;4.82;1.70;;;1.80;99.90;;;;;;5063603;28;20052;-60
2023/01/11 05:53:43;;;;;;;2.20;1.55;;;1.70;99.90;;;;;;5072730;28;20059;-61
2023/01/11 05:56:09;;;;;;;5.07;1.70;;;1.70;99.90;;;;;;5062538;28;20032;-61
2023/01/11 05:58:36;;;;;;;5.90;1.80;;;1.80;99.90;;;;;;5052306;28;20045;-61
2023/01/11 06:01:03;;;;;;;4.38;2.10;;;1.80;99.90;;;;;;5047773;28;20045;-61
2023/01/11 06:03:30;;;;;;;12.25;2.60;;;1.80;99.90;;;;;;5072161;28;20036;-61
2023/01/11 06:05:58;;;;;;;3.63;1.77;;;1.70;99.90;;;;;;5057803;28;20045;-61
2023/01/11 06:08:25;;;;;;;5.32;1.77;;;1.70;99.90;;;;;;5061759;22;20060;-62
2023/01/11 06:10:53;;;;;;;3.90;1.88;;;1.70;99.90;;;;;;5054252;28;20103;-60
2023/01/11 06:13:27;;;;;;;8.63;2.17;;;1.70;99.90;;;;;;5061409;28;20692;-62
2023/01/11 06:16:06;;;;;;;6.97;2.08;;;1.70;99.90;;;;;;5072260;28;20098;-62
2023/01/11 06:18:38;;;;;;;9.10;2.70;;;1.70;99.90;;;;;;5065411;28;20084;-62
2023/01/11 06:21:06;;;;;;;8.90;2.60;;;1.70;99.90;;;;;;5046256;28;20048;-62
2023/01/11 06:23:35;;;;;;;7.20;2.25;;;1.70;99.90;;;;;;5034235;28;20056;-62
2023/01/11 06:26:04;;;;;;;6.97;2.03;;;1.70;99.90;;;;;;5052181;28;20076;-61
2023/01/11 06:28:31;;;;;;;6.80;2.90;;;1.70;99.90;;;;;;5040644;28;20103;-62
2023/01/11 06:30:58;;;;;;;7.32;2.40;;;1.70;99.90;;;;;;5045147;28;20107;-62
2023/01/11 06:33:27;;;;;;;7.78;3.35;;;1.70;99.90;;;;;;5053391;28;20051;-62
2023/01/11 06:35:54;;;;;;;7.57;2.70;;;1.70;99.90;;;;;;5071771;28;20082;-62
2023/01/11 06:38:23;;;;;;;5.70;2.83;;;1.70;99.90;;;;;;5067497;28;20041;-61
2023/01/11 06:40:52;;;;;;;5.80;3.30;;;1.70;99.90;;;;;;5044969;28;20037;-61
2023/01/11 06:43:19;;;;;;;10.40;3.17;;;1.70;99.90;;;;;;5051108;28;20449;-60
2023/01/11 06:45:45;;;;;;;6.82;3.15;;;1.70;99.90;;;;;;5051794;28;20103;-61
2023/01/11 06:48:12;;;;;;;6.47;3.35;;;1.70;99.90;;;;;;5038633;28;20056;-60
2023/01/11 06:50:39;;;;;;;9.88;3.78;;;1.70;99.90;;;;;;5032118;28;20055;-62
2023/01/11 06:53:06;;;;;;;4.50;2.45;;;1.70;99.90;;;;;;5048769;28;20045;-61
2023/01/11 06:55:33;;;;;;;7.53;1.58;;;1.70;99.90;;;;;;5048009;28;20037;-60
2023/01/11 06:58:00;;;;;;;5.25;2.55;;;1.70;99.90;;;;;;5032185;28;20068;-60
2023/01/11 07:00:26;;;;;;;6.13;2.60;;;1.70;99.90;;;;;;5037030;28;20082;-60
2023/01/11 07:02:53;;;;;;;6.03;2.50;;;1.70;99.90;;;;;;5070893;28;20409;-61
2023/01/11 07:05:20;;;;;;;6.95;2.45;;;1.70;99.90;;;;;;5063761;28;20045;-60
2023/01/11 07:07:47;;;;;;;7.95;2.50;;;1.80;99.90;;;;;;5070552;28;20119;-61
2023/01/11 07:10:15;;;;;;;6.38;2.22;;;1.80;99.90;;;;;;5069490;28;20040;-61
2023/01/11 07:12:41;;;;;;;10.13;4.10;;;1.80;99.90;;;;;;5062480;28;20045;-61
2023/01/11 07:15:09;;;;;;;5.03;2.25;;;1.80;99.90;;;;;;5053485;28;20072;-61
2023/01/11 07:17:36;;;;;;;7.15;3.17;;;1.80;99.90;;;;;;5071374;28;20040;-61
2023/01/11 07:20:04;;;;;;;7.30;2.80;;;1.90;99.90;;;;;;5070850;28;20036;-61
2023/01/11 07:22:35;;;;;;;4.93;2.65;;;1.90;99.90;;;;;;5068195;28;20051;-61
2023/01/11 07:25:03;;;;;;;8.38;3.63;;;1.90;99.90;;;;;;5022047;28;20041;-61
2023/01/11 07:27:30;;;;;;;6.70;3.72;;;1.90;99.90;;;;;;5039690;28;20051;-60
2023/01/11 07:30:00;;;;;;;12.15;4.63;;;1.90;99.90;;;;;;5053228;28;20048;-61
2023/01/11 07:32:27;;;;;;;6.20;2.83;;;1.90;99.90;;;;;;5070325;28;20485;-61
2023/01/11 07:34:54;;;;;;;7.10;2.75;;;1.90;99.90;;;;;;5071305;28;20048;-61
2023/01/11 07:37:24;;;;;;;10.07;4.07;;;2.00;99.90;;;;;;5039694;28;20045;-61
2023/01/11 07:39:55;;;;;;;7.35;3.55;;;2.00;99.90;;;;;;5046850;28;20094;-61
2023/01/11 07:45:07;;;;;;;8.43;3.45;;;2.00;99.90;;;;;;5050382;28;20506;-61
2023/01/11 07:47:34;;;;;;;6.80;3.63;;;2.00;99.90;;;;;;5070979;28;20040;-61
2023/01/11 07:50:01;;;;;;;10.70;2.97;;;2.00;99.90;;;;;;5070542;28;20044;-61
2023/01/11 07:52:27;;;;;;;6.97;3.35;;;2.10;99.90;;;;;;5070697;28;20441;-61
2023/01/11 07:54:54;;;;;;;9.85;3.45;;;2.10;99.90;;;;;;5054622;28;20051;-60
2023/01/11 07:57:21;;;;;;;4.75;2.72;;;2.20;99.90;;;;;;5042707;28;20045;-61
2023/01/11 07:59:47;;;;;;;5.07;2.22;;;2.20;99.90;;;;;;5033147;28;20056;-61
2023/01/11 08:02:14;;;;;;;8.45;3.10;;;2.20;99.90;;;;;;5050318;28;20099;-61
2023/01/11 08:04:41;;;;;;;10.15;4.00;;;2.30;99.90;;;;;;5026876;28;20045;-61
2023/01/11 08:07:07;;;;;;;7.82;2.80;;;2.30;99.90;;;;;;5049029;28;20410;-61
2023/01/11 08:09:34;;;;;;;3.47;1.85;;;2.30;99.90;;;;;;5036579;28;20106;-61
2023/01/11 08:14:46;;;;;;;14.20;4.13;;;2.20;99.90;;;;;;5048995;28;20047;-61
2023/01/11 08:17:14;;;;;;;8.82;3.58;;;2.20;99.90;;;;;;5070852;28;20056;-60
2023/01/11 08:19:42;;;;;;;7.90;3.38;;;2.20;99.90;;;;;;5072369;28;20493;-61
2023/01/11 08:22:09;;;;;;;;;;;2.20;99.90;;;;;;5061845;28;20041;-61
2023/01/11 08:24:35;;;;;;;6.25;3.15;;;2.30;99.90;;;;;;5048821;28;19924;-60
2023/01/11 08:27:03;;;;;;;6.00;3.30;;;2.30;99.90;;;;;;5074627;28;20520;-61
2023/01/11 08:29:30;;;;;;;;;;;2.40;99.90;;;;;;5074733;28;20052;-60
2023/01/11 08:31:58;;;;;;;7.57;2.97;;;2.50;99.90;;;;;;5059243;28;19925;-61
2023/01/11 08:34:26;;;;;;;6.97;3.45;;;2.50;99.90;;;;;;5057918;28;20124;-61
2023/01/11 08:36:55;;;;;;;5.95;3.15;;;2.50;99.90;;;;;;5071964;28;20185;-61
2023/01/11 08:39:23;;;;;;;9.82;3.15;;;2.50;99.90;;;;;;5073595;28;20195;-61
2023/01/11 08:41:50;;;;;;;7.07;3.15;;;2.50;99.90;;;;;;5073168;28;20481;-60
2023/01/11 08:44:16;;;;;;;4.85;2.67;;;2.40;99.90;;;;;;5073858;28;20044;-61
2023/01/11 08:46:58;;;;;;;7.13;3.20;;;2.40;99.90;;;;;;5045127;28;20414;-61
2023/01/11 08:49:25;;;;;;;10.50;3.42;;;2.40;99.90;;;;;;5034356;28;20041;-61
2023/01/11 08:51:52;;;;;;;9.85;3.95;;;2.50;99.90;;;;;;5033959;28;20556;-61
2023/01/11 08:54:18;;;;;;;6.40;2.85;;;2.50;99.90;;;;;;5033960;28;20050;-61
2023/01/11 08:56:45;;;;;;;7.72;3.38;;;2.60;99.90;;;;;;5042103;28;20092;-60
2023/01/11 08:59:12;;;;;;;7.53;3.42;;;2.60;99.90;;;;;;5052397;28;20183;-61
2023/01/11 09:01:39;;;;;;;8.75;3.90;;;2.70;99.90;;;;;;5051758;28;20047;-60
2023/01/11 09:04:06;;;;;;;10.30;3.38;;;2.80;99.90;;;;;;5074208;28;20036;-61
2023/01/11 09:06:48;;;;;;;8.50;2.83;;;2.90;99.90;;;;;;5073974;28;20413;-61
2023/01/11 09:09:15;;;;;;;5.32;2.88;;;2.90;99.90;;;;;;5073056;28;20099;-61
2023/01/11 09:11:55;;;;;;;8.23;3.25;;;3.00;99.90;;;;;;5062200;28;20048;-61
2023/01/11 09:14:24;;;;;;;14.38;6.13;;;3.00;99.90;;;;;;5055880;28;20123;-60
2023/01/11 09:16:52;;;;;;;10.05;4.30;;;3.10;99.90;;;;;;5073628;28;20037;-61
2023/01/11 09:19:19;;;;;;;8.77;4.35;;;3.20;99.90;;;;;;5051460;28;20046;-61
2023/01/11 09:21:46;;;;;;;7.60;3.83;;;3.20;99.90;;;;;;5047972;28;20067;-61
2023/01/11 09:24:13;;;;;;;8.77;3.65;;;3.10;99.90;;;;;;5053596;28;20451;-61
2023/01/11 09:26:42;;;;;;;8.40;3.53;;;3.10;99.90;;;;;;5040406;28;20079;-61
2023/01/11 09:29:09;;;;;;;9.70;3.65;;;3.20;99.90;;;;;;5068879;28;20036;-61
2023/01/11 09:31:36;;;;;;;10.55;4.00;;;3.20;99.90;;;;;;5071880;28;20493;-61
2023/01/11 09:34:04;;;;;;;6.80;3.65;;;3.20;99.90;;;;;;5074084;28;20438;-60
2023/01/11 09:36:32;;;;;;;5.93;3.50;;;3.20;99.90;;;;;;5062942;28;20037;-61
2023/01/11 09:39:01;;;;;;;8.63;3.80;;;3.20;99.90;;;;;;5073096;28;20040;-61
2023/01/11 09:41:39;;;;;;;8.73;4.53;;;3.30;99.90;;;;;;5054174;28;20094;-61
2023/01/11 09:44:14;;;;;;;11.05;4.85;;;3.30;99.90;;;;;;5061922;28;20037;-61
2023/01/11 09:46:47;;;;;;;12.48;6.22;;;3.40;99.90;;;;;;5044859;28;20091;-61
2023/01/11 09:49:24;;;;;;;7.50;3.17;;;3.40;99.90;;;;;;5035335;28;20063;-61
2023/01/11 09:51:52;;;;;;;7.13;3.35;;;3.50;99.90;;;;;;5052612;28;20049;-61
2023/01/11 09:54:25;;;;;;;7.60;2.75;;;3.60;99.90;;;;;;5044733;28;20044;-61
2023/01/11 09:57:12;;;;;;;9.10;4.03;;;3.70;99.90;;;;;;5047839;28;20559;-61
2023/01/11 09:59:55;;;;;;;8.73;3.70;;;3.80;99.90;;;;;;5052652;28;20041;-60
2023/01/11 10:02:50;;;;;;;7.43;4.07;;;3.90;99.90;;;;;;5051335;28;20060;-61
2023/01/11 10:05:37;;;;;;;8.77;4.30;;;4.00;99.90;;;;;;5043724;28;20045;-61
2023/01/11 10:08:29;;;;;;;6.53;3.45;;;4.10;99.90;;;;;;5052526;28;20049;-61
2023/01/11 10:11:46;;;;;;;8.90;3.53;;;4.20;99.90;;;;;;5050233;28;20124;-61
2023/01/11 10:14:53;;;;;;;7.45;3.10;;;4.20;99.90;;;;;;5043303;28;20109;-61
2023/01/11 10:17:58;;;;;;;6.20;3.15;;;4.20;99.90;;;;;;5072289;28;20049;-61
2023/01/11 10:21:04;;;;;;;5.43;2.50;;;4.30;99.90;;;;;;5071728;28;20120;-61
2023/01/11 10:24:01;;;;;;;5.60;3.05;;;4.30;99.90;;;;;;5049654;28;20045;-61
2023/01/11 10:26:35;;;;;;;7.60;3.35;;;4.10;99.90;;;;;;5014101;28;20076;-61
2023/01/11 10:29:21;;;;;;;5.75;2.72;;;4.10;99.90;;;;;;5032375;28;20128;-61
2023/01/11 10:32:12;;;;;;;8.18;2.83;;;4.20;99.90;;;;;;5031680;28;20049;-61
2023/01/11 10:34:59;;;;;;;7.03;2.90;;;4.20;99.90;;;;;;5059403;28;20522;-61
2023/01/11 10:37:46;;;;;;;8.63;3.25;;;4.30;99.90;;;;;;5072129;28;20441;-61
2023/01/11 10:41:05;;;;;;;7.28;2.13;;;4.50;99.90;;;;;;5056046;28;20041;-61
2023/01/11 10:43:40;;;;;;;8.50;2.67;;;4.50;99.90;;;;;;5044423;28;20098;-60
2023/01/11 10:46:12;;;;;;;6.32;3.00;;;4.60;99.90;;;;;;5052274;28;20106;-61
2023/01/11 10:48:41;;;;;;;6.70;3.63;;;4.70;99.90;;;;;;5048517;28;20060;-61
2023/01/11 10:51:28;;;;;;;4.55;2.60;;;4.80;99.90;;;;;;5071771;28;20401;-61
2023/01/11 10:54:25;;;;;;;6.45;2.90;;;4.80;99.90;;;;;;5071708;28;20048;-61
2023/01/11 10:57:12;;;;;;;3.67;2.33;;;4.80;99.90;;;;;;5041489;28;20037;-61
2023/01/11 10:59:57;;;;;;;7.22;3.22;;;4.70;99.90;;;;;;5031725;28;20512;-61
2023/01/11 11:02:51;;;;;;;5.55;2.83;;;4.70;99.90;;;;;;5031435;28;20091;-61
2023/01/11 11:05:37;;;;;;;4.75;2.85;;;4.80;99.90;;;;;;5039119;28;20305;-61
2023/01/11 11:08:12;;;;;;;5.15;2.92;;;4.80;99.90;;;;;;5065439;28;20554;-61
2023/01/11 11:10:58;;;;;;;9.73;2.72;;;4.80;99.90;;;;;;5071349;28;20285;-61
2023/01/11 11:13:33;;;;;;;5.88;2.80;;;4.80;99.90;;;;;;5071168;28;20504;-60
2023/01/11 11:16:21;;;;;;;7.68;2.92;;;4.80;99.90;;;;;;5049189;28;20044;-60
2023/01/11 11:18:50;;;;;;;11.95;5.03;;;4.90;99.90;;;;;;5047938;28;20036;-60
2023/01/11 11:21:32;;;;;;;10.32;4.70;;;4.90;99.90;;;;;;5053016;28;20044;-61
2023/01/11 11:24:03;;;;;;;7.43;3.10;;;4.90;99.90;;;;;;5070809;28;20071;-60
2023/01/11 11:26:43;;;;;;;8.82;3.10;;;5.00;99.90;;;;;;5062975;28;20037;-60
2023/01/11 11:29:18;;;;;;;8.35;3.90;;;4.90;99.90;;;;;;5066890;28;20045;-60
2023/01/11 11:31:46;;;;;;;7.82;3.22;;;4.70;99.90;;;;;;5070709;28;20382;-60
2023/01/11 11:34:18;;;;;;;4.07;2.05;;;4.80;99.90;;;;;;5071723;28;20048;-60
2023/01/11 11:36:48;;;;;;;9.57;4.30;;;4.90;99.90;;;;;;5054466;28;20405;-60
2023/01/11 11:39:26;;;;;;;6.78;3.45;;;5.00;99.90;;;;;;5042399;28;20075;-60
2023/01/11 11:41:55;;;;;;;6.68;2.63;;;5.20;99.90;;;;;;5050906;28;20296;-60
2023/01/11 11:44:24;;;;;;;14.73;3.17;;;5.20;99.90;;;;;;5046181;28;20053;-60
2023/01/11 11:47:14;;;;;;;9.50;3.03;;;5.30;99.90;;;;;;5062180;28;20044;-60
2023/01/11 11:49:41;;;;;;;5.22;2.33;;;5.30;99.90;;;;;;5070070;28;20059;-60
2023/01/11 11:52:13;;;;;;;4.18;1.88;;;5.20;99.90;;;;;;5070802;28;20079;-60
2023/01/11 11:54:48;;;;;;;3.75;2.10;;;5.30;99.90;;;;;;5061680;28;20397;-60
2023/01/11 11:57:21;;;;;;;7.63;2.58;;;5.30;99.90;;;;;;5049422;28;20075;-60
2023/01/11 11:59:53;;;;;;;5.30;3.30;;;5.10;99.90;;;;;;5057532;28;20114;-60
2023/01/11 12:02:28;;;;;;;12.57;3.88;;;4.90;99.90;;;;;;5052050;28;20041;-60
2023/01/11 12:04:58;;;;;;;9.23;4.13;;;5.10;99.90;;;;;;5049522;28;20456;-60
2023/01/11 12:07:33;;;;;;;5.70;2.70;;;5.40;99.90;;;;;;5057712;28;20049;-60
2023/01/11 12:10:18;;;;;;;4.93;2.80;;;5.40;99.90;;;;;;5071432;22;20051;-60
2023/01/11 12:12:50;;;;;;;9.77;2.60;;;5.50;99.90;;;;;;5045927;28;20255;-60
2023/01/11 12:15:39;;;;;;;5.65;2.50;;;5.60;99.90;;;;;;5053252;28;20053;-60
2023/01/11 12:18:45;;;;;;;9.50;2.65;;;5.60;99.90;;;;;;5037585;28;20072;-59
2023/01/11 12:21:21;;;;;;;4.88;2.45;;;5.60;99.90;;;;;;4954664;28;20109;-60
2023/01/11 12:24:07;;;;;;;3.30;2.20;;;5.70;99.90;;;;;;4956890;28;20086;-60
2023/01/11 12:27:03;;;;;;;6.45;2.80;;;5.50;99.90;;;;;;5001833;28;20057;-60
2023/01/11 12:29:39;;;;;;;6.22;1.77;;;5.50;99.90;;;;;;5017218;28;20057;-60
2023/01/11 12:32:13;;;;;;;3.95;1.63;;;5.50;99.90;;;;;;5017202;28;20046;-60
2023/01/11 12:34:56;;;;;;;7.22;2.53;;;5.50;99.90;;;;;;5023834;28;20556;-60
2023/01/11 12:37:47;;;;;;;5.57;2.35;;;5.40;99.90;;;;;;5017405;28;20165;-60
2023/01/11 12:40:24;;;;;;;8.05;3.00;;;5.10;99.90;;;;;;5017040;28;20092;-60
2023/01/11 12:43:05;;;;;;;4.78;2.45;;;5.20;99.90;;;;;;5027372;28;20041;-60
2023/01/11 12:45:34;;;;;;;5.78;2.80;;;5.30;99.90;;;;;;5017875;28;20050;-60
2023/01/11 12:48:18;;;;;;;6.78;2.75;;;5.40;99.90;;;;;;5017063;28;20569;-60
2023/01/11 12:51:03;;;;;;;6.10;2.30;;;5.50;99.90;;;;;;5017149;28;20085;-59
2023/01/11 12:53:40;;;;;;;3.97;1.98;;;5.50;99.90;;;;;;5018565;28;20045;-60
2023/01/11 12:56:28;;;;;;;4.35;1.98;;;5.50;99.90;;;;;;5017346;28;20046;-60
2023/01/11 12:59:16;;;;;;;10.40;4.38;;;5.50;99.90;;;;;;4999262;28;20571;-60
2023/01/11 13:02:06;;;;;;;6.78;3.28;;;5.70;99.90;;;;;;5023427;28;20083;-60
2023/01/11 13:04:42;;;;;;;16.92;6.35;;;5.80;99.90;;;;;;5028482;28;20033;-60
2023/01/11 13:07:35;;;;;;;10.07;2.67;;;6.00;99.90;;;;;;5033992;28;20453;-60
2023/01/11 13:10:10;;;;;;;5.70;2.80;;;6.20;99.90;;;;;;5033207;28;20045;-60
2023/01/11 13:12:45;;;;;;;8.95;3.80;;;6.10;99.90;;;;;;5025114;28;20046;-60
2023/01/11 13:15:41;;;;;;;5.55;2.95;;;6.10;99.90;;;;;;5025081;28;20077;-60
2023/01/11 13:18:23;;;;;;;9.18;3.38;;;6.00;99.90;;;;;;5014024;28;20038;-60
2023/01/11 13:21:15;;;;;;;7.85;2.65;;;6.00;99.90;;;;;;5013451;28;20041;-60
2023/01/11 13:23:45;;;;;;;7.40;2.58;;;6.00;99.90;;;;;;5014111;28;20038;-60
2023/01/11 13:26:26;;;;;;;6.55;2.20;;;5.90;99.90;;;;;;5022541;28;20411;-60
2023/01/11 13:29:02;;;;;;;7.57;2.72;;;5.80;99.90;;;;;;5029088;28;20050;-60
2023/01/11 13:31:32;;;;;;;4.65;2.15;;;5.80;99.90;;;;;;5033257;28;20049;-60
2023/01/11 13:34:21;;;;;;;8.85;3.22;;;5.70;99.90;;;;;;5024561;28;20038;-60
2023/01/11 13:36:57;;;;;;;9.90;3.35;;;5.50;99.90;;;;;;5013385;28;20038;-60
2023/01/11 13:39:46;;;;;;;5.88;3.67;;;5.50;99.90;;;;;;5013276;28;20113;-60
2023/01/11 13:43:10;;;;;;;5.03;3.05;;;5.60;99.90;;;;;;5023927;28;20057;-60
2023/01/11 13:45:43;;;;;;;10.45;3.35;;;5.70;99.90;;;;;;4946936;28;20044;-60
2023/01/11 13:48:24;;;;;;;13.02;3.78;;;5.60;99.90;;;;;;5031258;28;20103;-60
2023/01/11 13:51:01;;;;;;;5.95;3.08;;;5.50;99.90;;;;;;5032835;28;20046;-59
2023/01/11 13:53:41;;;;;;;6.15;2.45;;;5.40;99.90;;;;;;5031103;28;20045;-62
2023/01/11 13:56:17;;;;;;;5.60;2.90;;;5.30;99.90;;;;;;5015449;28;20100;-59